Time;durP1;ratioP1;P1;durP2;ratioP2;P2;SDS_P1;SDS_P2;PMS_P1;PMS_P2;Temp;Humidity;BMP_temperature;BMP_pressure;BME280_temperature;BME280_humidity;BME280_pressure;Samples;Min_cycle;Max_cycle;Signal;HPM_P1;HPM_P2
2022/07/15 00:01:15;;;;;;;7.30;3.80;;;12.80;99.90;;;;;;4989037;28;20054;-73
2022/07/15 00:03:41;;;;;;;5.47;3.97;;;12.90;99.90;;;;;;4987230;28;20050;-72
2022/07/15 00:06:06;;;;;;;10.80;4.10;;;12.80;99.90;;;;;;4989824;28;20049;-72
2022/07/15 00:08:32;;;;;;;7.90;3.92;;;12.80;99.90;;;;;;4989491;28;20058;-72
2022/07/15 00:10:58;;;;;;;10.68;4.22;;;12.80;99.90;;;;;;4989745;28;20132;-72
2022/07/15 00:13:25;;;;;;;13.27;4.18;;;12.80;99.90;;;;;;4985579;28;20046;-73
2022/07/15 00:15:50;;;;;;;6.22;3.95;;;12.80;99.90;;;;;;4989508;28;20108;-72
2022/07/15 00:18:16;;;;;;;6.97;3.45;;;12.90;99.90;;;;;;4989525;28;20050;-73
2022/07/15 00:20:42;;;;;;;12.57;4.13;;;12.80;99.90;;;;;;4988984;28;20042;-72
2022/07/15 00:23:07;;;;;;;8.55;3.97;;;12.90;99.90;;;;;;4988963;28;20042;-73
2022/07/15 00:25:34;;;;;;;12.02;3.95;;;12.90;99.90;;;;;;4987520;28;20436;-72
2022/07/15 00:28:05;;;;;;;11.23;4.43;;;12.90;99.90;;;;;;4989441;28;20141;-72
2022/07/15 00:30:33;;;;;;;12.00;4.45;;;12.90;99.90;;;;;;4971878;28;20313;-72
2022/07/15 00:33:00;;;;;;;16.30;5.00;;;12.90;99.90;;;;;;4971489;28;20438;-72
2022/07/15 00:35:26;;;;;;;12.57;4.50;;;12.90;99.90;;;;;;4971573;28;20055;-72
2022/07/15 00:37:52;;;;;;;6.65;3.60;;;13.00;99.90;;;;;;4971169;28;20129;-72
2022/07/15 00:40:18;;;;;;;9.85;4.05;;;13.00;99.90;;;;;;4985525;28;20129;-72
2022/07/15 00:42:44;;;;;;;6.93;3.83;;;13.00;99.90;;;;;;4988444;28;20046;-73
2022/07/15 00:45:11;;;;;;;10.80;3.88;;;13.00;99.90;;;;;;4971774;28;20038;-72
2022/07/15 00:47:37;;;;;;;5.85;4.47;;;13.10;99.90;;;;;;4989071;28;20518;-72
2022/07/15 00:50:02;;;;;;;7.88;3.63;;;13.00;99.90;;;;;;4987422;28;20046;-73
2022/07/15 00:52:29;;;;;;;8.20;3.60;;;13.10;99.90;;;;;;4989304;28;20121;-72
2022/07/15 00:54:59;;;;;;;6.40;3.67;;;13.10;99.90;;;;;;4971023;28;20043;-73
2022/07/15 00:57:27;;;;;;;10.45;4.38;;;13.10;99.90;;;;;;4988711;28;20076;-73
2022/07/15 00:59:54;;;;;;;8.27;3.78;;;13.10;99.90;;;;;;4988638;28;20058;-72
2022/07/15 01:02:20;;;;;;;18.95;5.10;;;13.10;99.90;;;;;;4971836;28;20054;-72
2022/07/15 01:04:48;;;;;;;9.70;4.43;;;13.10;99.90;;;;;;4987703;28;20605;-72
2022/07/15 01:07:14;;;;;;;14.32;3.75;;;13.10;99.90;;;;;;4984134;28;20615;-72
2022/07/15 01:09:40;;;;;;;18.02;5.25;;;13.20;99.90;;;;;;4980462;28;20058;-73
2022/07/15 01:12:06;;;;;;;13.65;4.28;;;13.10;99.90;;;;;;4971091;28;20050;-72
2022/07/15 01:14:31;;;;;;;8.18;4.25;;;13.10;99.90;;;;;;4971485;28;20053;-73
2022/07/15 01:16:57;;;;;;;17.33;4.93;;;13.10;99.90;;;;;;4972741;28;20072;-72
2022/07/15 01:19:24;;;;;;;7.07;3.42;;;13.10;99.90;;;;;;4998453;28;20109;-72
2022/07/15 01:21:49;;;;;;;8.63;4.30;;;13.10;99.90;;;;;;4988043;28;20649;-73
2022/07/15 01:24:15;;;;;;;7.97;5.13;;;13.20;99.90;;;;;;4988653;28;20042;-72
2022/07/15 01:26:41;;;;;;;8.40;4.75;;;13.20;99.90;;;;;;4989194;28;20034;-72
2022/07/15 01:29:06;;;;;;;13.13;4.10;;;13.20;99.90;;;;;;4984840;28;20096;-73
2022/07/15 01:31:32;;;;;;;14.35;5.90;;;13.20;99.90;;;;;;4988405;28;20648;-73
2022/07/15 01:33:58;;;;;;;13.90;4.88;;;13.20;99.90;;;;;;4970747;28;20512;-72
2022/07/15 01:36:23;;;;;;;11.73;4.78;;;13.20;99.90;;;;;;4980714;28;20419;-72
2022/07/15 01:38:49;;;;;;;8.68;4.80;;;13.20;99.90;;;;;;4966524;28;20050;-72
2022/07/15 01:41:15;;;;;;;18.30;5.43;;;13.20;99.90;;;;;;4988511;28;20074;-72
2022/07/15 01:43:41;;;;;;;7.97;4.03;;;13.20;99.90;;;;;;4987903;28;20051;-72
2022/07/15 01:46:06;;;;;;;23.77;5.13;;;13.30;99.90;;;;;;4969891;28;20082;-72
2022/07/15 01:51:16;;;;;;;10.02;4.18;;;13.30;99.90;;;;;;4967718;28;20058;-73
2022/07/15 01:53:42;;;;;;;15.60;5.35;;;13.30;99.90;;;;;;4981027;28;20093;-72
2022/07/15 01:56:07;;;;;;;15.70;4.63;;;13.30;99.90;;;;;;4970222;28;20049;-72
2022/07/15 01:58:33;;;;;;;10.70;4.32;;;13.30;99.90;;;;;;4988203;28;20085;-72
2022/07/15 02:00:59;;;;;;;10.70;4.22;;;13.30;99.90;;;;;;4986788;28;20451;-72
2022/07/15 02:03:25;;;;;;;11.57;4.20;;;13.20;99.90;;;;;;4966269;28;20092;-72
2022/07/15 02:05:51;;;;;;;13.45;5.03;;;13.20;99.90;;;;;;4978445;28;20054;-72
2022/07/15 02:08:16;;;;;;;13.23;4.32;;;13.20;99.90;;;;;;4964637;28;20090;-73
2022/07/15 02:10:43;;;;;;;10.70;4.43;;;13.20;99.90;;;;;;4967846;28;20061;-72
2022/07/15 02:13:10;;;;;;;8.23;4.70;;;13.20;99.90;;;;;;4968426;28;20055;-73
2022/07/15 02:15:36;;;;;;;12.75;4.57;;;13.20;99.90;;;;;;4969145;28;20058;-72
2022/07/15 02:18:02;;;;;;;12.93;4.40;;;13.20;99.90;;;;;;4968125;28;20101;-74
2022/07/15 02:20:28;;;;;;;11.38;4.63;;;13.20;99.90;;;;;;4975624;28;20492;-73
2022/07/15 02:22:57;;;;;;;18.13;4.57;;;13.20;99.90;;;;;;4971948;28;20113;-73
2022/07/15 02:25:28;;;;;;;15.23;5.18;;;13.10;99.90;;;;;;4971920;28;20097;-73
2022/07/15 02:28:00;;;;;;;17.23;4.78;;;13.10;99.90;;;;;;4962535;28;20103;-72
2022/07/15 02:30:32;;;;;;;11.10;5.03;;;13.10;99.90;;;;;;4960542;28;20122;-72
2022/07/15 02:32:58;;;;;;;14.15;5.05;;;13.10;99.90;;;;;;4969279;28;20138;-72
2022/07/15 02:35:24;;;;;;;9.63;4.22;;;13.10;99.90;;;;;;4972239;28;20097;-72
2022/07/15 02:37:51;;;;;;;25.17;5.00;;;13.20;99.90;;;;;;4964785;28;20047;-72
2022/07/15 02:40:17;;;;;;;15.45;4.60;;;13.20;99.90;;;;;;4972158;28;20408;-71
2022/07/15 02:42:54;;;;;;;22.10;4.70;;;13.20;99.90;;;;;;4975842;28;20054;-71
2022/07/15 02:45:23;;;;;;;10.07;4.03;;;13.20;99.90;;;;;;4971858;28;20420;-72
2022/07/15 02:47:50;;;;;;;;;;;13.10;99.90;;;;;;4966548;28;20114;-72
2022/07/15 02:50:18;;;;;;;10.00;4.07;;;13.10;99.90;;;;;;4968041;28;19945;-72
2022/07/15 02:52:44;;;;;;;10.80;5.30;;;13.10;99.90;;;;;;4960046;28;20049;-72
2022/07/15 02:55:12;;;;;;;13.75;4.28;;;13.10;99.90;;;;;;4971382;28;20073;-72
2022/07/15 02:57:38;;;;;;;10.30;3.88;;;13.00;99.90;;;;;;4970374;28;20082;-72
2022/07/15 03:00:06;;;;;;;5.25;3.50;;;13.00;99.90;;;;;;4971415;28;20081;-72
2022/07/15 03:02:32;;;;;;;15.02;4.70;;;13.00;99.90;;;;;;4965485;28;20055;-72
2022/07/15 03:04:58;;;;;;;9.60;4.20;;;13.00;99.90;;;;;;4970498;28;20055;-72
2022/07/15 03:07:23;;;;;;;12.90;4.85;;;12.90;99.90;;;;;;4968719;28;20149;-72
2022/07/15 03:09:49;;;;;;;4.70;3.38;;;12.90;99.90;;;;;;4969177;28;20121;-73
2022/07/15 03:12:15;;;;;;;13.45;4.35;;;12.80;99.90;;;;;;4970679;28;20053;-72
2022/07/15 03:14:40;;;;;;;15.80;4.45;;;12.70;99.90;;;;;;4970191;28;20043;-72
2022/07/15 03:17:08;;;;;;;11.25;4.32;;;12.60;99.90;;;;;;4970302;28;20047;-72
2022/07/15 03:19:34;;;;;;;21.30;4.82;;;12.60;99.90;;;;;;4970732;28;20373;-72
2022/07/15 03:22:00;;;;;;;7.43;4.00;;;12.50;99.90;;;;;;4966732;28;20042;-73
2022/07/15 03:24:25;;;;;;;8.05;3.83;;;12.50;99.90;;;;;;4965304;28;20513;-72
2022/07/15 03:26:51;;;;;;;6.25;4.00;;;12.50;99.90;;;;;;4969923;28;20158;-72
2022/07/15 03:29:16;;;;;;;6.45;4.10;;;12.40;99.90;;;;;;4970191;28;20133;-72
2022/07/15 03:31:43;;;;;;;6.03;3.70;;;12.40;99.90;;;;;;4968880;28;20452;-73
2022/07/15 03:34:12;;;;;;;16.20;4.35;;;12.30;99.90;;;;;;4967291;28;20089;-73
2022/07/15 03:36:39;;;;;;;15.82;4.22;;;12.30;99.90;;;;;;4956665;28;20055;-72
2022/07/15 03:39:06;;;;;;;9.10;4.35;;;12.20;99.90;;;;;;4964617;28;20126;-72
2022/07/15 03:41:32;;;;;;;10.43;4.18;;;12.10;99.90;;;;;;4968530;28;20353;-72
2022/07/15 03:43:58;;;;;;;9.05;4.03;;;12.10;99.90;;;;;;4969239;28;20537;-72
2022/07/15 03:46:24;;;;;;;16.60;4.15;;;12.00;99.90;;;;;;4968317;28;20484;-72
2022/07/15 03:48:50;;;;;;;14.82;4.85;;;11.90;99.90;;;;;;4969839;28;20047;-72
2022/07/15 03:51:15;;;;;;;9.88;4.35;;;11.90;99.90;;;;;;4961888;28;20576;-72
2022/07/15 03:53:41;;;;;;;13.27;4.10;;;11.90;99.90;;;;;;4966975;28;20039;-72
2022/07/15 03:56:07;;;;;;;13.60;4.85;;;11.90;99.90;;;;;;4968942;28;20042;-72
2022/07/15 03:58:33;;;;;;;7.25;4.63;;;11.80;99.90;;;;;;4960692;28;20054;-73
2022/07/15 04:00:59;;;;;;;9.10;4.30;;;11.80;99.90;;;;;;4976827;28;20053;-72
2022/07/15 04:03:25;;;;;;;17.05;5.82;;;11.80;99.90;;;;;;4970042;28;20042;-72
2022/07/15 04:05:51;;;;;;;10.88;5.22;;;11.80;99.90;;;;;;4964837;28;20053;-73
2022/07/15 04:08:16;;;;;;;7.32;4.55;;;11.80;99.90;;;;;;4935338;28;1072605;-72
2022/07/15 04:10:42;;;;;;;10.63;5.00;;;11.80;99.90;;;;;;4989594;28;20051;-72
2022/07/15 04:13:08;;;;;;;7.25;4.50;;;11.80;99.90;;;;;;4989480;28;20272;-72
2022/07/15 04:15:34;;;;;;;19.58;6.05;;;11.80;99.90;;;;;;4969661;28;20385;-72
2022/07/15 04:18:01;;;;;;;13.68;5.43;;;11.70;99.90;;;;;;4983351;28;20041;-72
2022/07/15 04:20:27;;;;;;;13.32;4.57;;;11.70;99.90;;;;;;4981315;28;20570;-72
2022/07/15 04:22:53;;;;;;;11.07;4.43;;;11.70;99.90;;;;;;4989281;28;20049;-72
2022/07/15 04:25:20;;;;;;;10.93;5.82;;;11.70;99.90;;;;;;4988400;28;20431;-72
2022/07/15 04:27:48;;;;;;;11.55;5.20;;;11.70;99.90;;;;;;4985495;28;20050;-72
2022/07/15 04:30:14;;;;;;;12.20;6.50;;;11.80;99.90;;;;;;4967739;28;20046;-72
2022/07/15 04:32:41;;;;;;;15.05;4.80;;;11.80;99.90;;;;;;4989216;28;20054;-72
2022/07/15 04:35:07;;;;;;;9.90;4.78;;;11.80;99.90;;;;;;4968225;28;20145;-72
2022/07/15 04:37:32;;;;;;;12.60;5.00;;;11.80;99.90;;;;;;4985176;28;20502;-72
2022/07/15 04:39:58;;;;;;;12.65;6.45;;;11.90;99.90;;;;;;4971739;28;20046;-73
2022/07/15 04:42:24;;;;;;;13.35;5.00;;;11.90;99.90;;;;;;4972185;28;20046;-72
2022/07/15 04:44:50;;;;;;;14.50;5.53;;;12.00;99.90;;;;;;4987863;28;20050;-72
2022/07/15 04:47:16;;;;;;;11.52;5.38;;;12.00;99.90;;;;;;4989427;28;20055;-72
2022/07/15 04:52:27;;;;;;;14.07;5.95;;;12.10;99.90;;;;;;4971374;28;20068;-72
2022/07/15 04:54:53;;;;;;;15.40;6.38;;;12.20;99.90;;;;;;4968117;28;20129;-72
2022/07/15 04:57:19;;;;;;;11.40;5.57;;;12.30;99.90;;;;;;4971622;28;20065;-73
2022/07/15 04:59:47;;;;;;;18.85;5.65;;;12.20;99.90;;;;;;4988302;28;20522;-72
2022/07/15 05:02:13;;;;;;;17.38;5.10;;;12.40;99.90;;;;;;4984131;28;20403;-72
2022/07/15 05:04:39;;;;;;;14.50;4.82;;;12.40;99.90;;;;;;4988796;28;20081;-72
2022/07/15 05:07:05;;;;;;;9.45;4.13;;;12.50;99.90;;;;;;4982405;28;20055;-72
2022/07/15 05:09:31;;;;;;;13.05;5.43;;;12.50;99.90;;;;;;4963533;28;20061;-71
2022/07/15 05:11:59;;;;;;;20.10;5.47;;;12.60;99.90;;;;;;4966302;28;20500;-72
2022/07/15 05:14:24;;;;;;;9.85;5.03;;;12.60;99.90;;;;;;4960995;28;20050;-72
2022/07/15 05:16:50;;;;;;;17.25;4.63;;;12.70;99.90;;;;;;4968266;28;20043;-72
2022/07/15 05:19:17;;;;;;;7.60;4.00;;;12.80;99.90;;;;;;4969546;28;20047;-72
2022/07/15 05:21:43;;;;;;;12.55;4.72;;;12.80;99.90;;;;;;4967065;28;20515;-71
2022/07/15 05:24:08;;;;;;;8.50;3.70;;;12.90;99.90;;;;;;4970000;28;20043;-73
2022/07/15 05:26:34;;;;;;;12.10;4.13;;;13.00;99.90;;;;;;4969032;28;20042;-72
2022/07/15 05:29:00;;;;;;;12.98;5.20;;;13.00;99.90;;;;;;4974977;28;20038;-72
2022/07/15 05:31:27;;;;;;;8.57;4.03;;;13.10;99.90;;;;;;4967642;28;20127;-72
2022/07/15 05:33:53;;;;;;;13.02;4.85;;;13.20;99.90;;;;;;4967658;28;20129;-72
2022/07/15 05:36:19;;;;;;;9.50;4.18;;;13.20;99.90;;;;;;4970207;28;20149;-72
2022/07/15 05:38:45;;;;;;;8.93;3.17;;;13.30;99.90;;;;;;4973942;28;20364;-72
2022/07/15 05:41:11;;;;;;;5.70;2.83;;;13.30;99.90;;;;;;4977708;28;20046;-72
2022/07/15 05:43:37;;;;;;;10.27;2.95;;;13.40;99.90;;;;;;4969161;28;20053;-72
2022/07/15 05:46:03;;;;;;;7.32;3.03;;;13.40;99.90;;;;;;4967031;28;20050;-72
2022/07/15 05:48:29;;;;;;;13.43;3.63;;;13.40;99.90;;;;;;4968109;28;20083;-71
2022/07/15 05:50:55;;;;;;;13.73;2.85;;;13.50;99.90;;;;;;4964917;28;20140;-71
2022/07/15 05:53:21;;;;;;;4.32;2.13;;;13.50;99.90;;;;;;4971105;28;20587;-71
2022/07/15 05:55:47;;;;;;;7.47;3.53;;;13.60;99.90;;;;;;4967526;28;20077;-71
2022/07/15 05:58:12;;;;;;;7.15;2.97;;;13.60;99.90;;;;;;4964365;28;20054;-71
2022/07/15 06:00:38;;;;;;;9.57;2.40;;;13.60;99.90;;;;;;4967040;28;20046;-71
2022/07/15 06:03:04;;;;;;;9.80;3.58;;;13.70;99.90;;;;;;4958402;28;20114;-72
2022/07/15 06:05:30;;;;;;;6.50;2.67;;;13.80;99.90;;;;;;4965252;28;20085;-71
2022/07/15 06:07:57;;;;;;;6.25;2.95;;;13.80;99.90;;;;;;4982339;28;20861;-71
2022/07/15 06:10:23;;;;;;;5.95;2.75;;;13.80;99.90;;;;;;4966039;28;20096;-71
2022/07/15 06:12:48;;;;;;;6.32;2.90;;;13.90;99.90;;;;;;4986694;28;20077;-71
2022/07/15 06:15:14;;;;;;;22.00;3.03;;;13.90;99.90;;;;;;4970034;28;20046;-70
2022/07/15 06:17:40;;;;;;;6.00;2.85;;;14.00;99.90;;;;;;4986062;28;20038;-72
2022/07/15 06:20:06;;;;;;;5.85;3.05;;;14.10;99.90;;;;;;4987452;28;20157;-72
2022/07/15 06:22:32;;;;;;;6.65;3.00;;;14.10;99.90;;;;;;4969862;28;20057;-71
2022/07/15 06:24:58;;;;;;;2.92;2.10;;;14.20;99.90;;;;;;4968101;28;20113;-71
2022/07/15 06:27:24;;;;;;;10.43;2.42;;;14.30;99.90;;;;;;4986604;28;20133;-71
2022/07/15 06:29:50;;;;;;;9.50;2.17;;;14.30;99.90;;;;;;4986887;28;20522;-71
2022/07/15 06:32:17;;;;;;;9.38;2.75;;;14.30;99.90;;;;;;4966597;28;20385;-72
2022/07/15 06:34:43;;;;;;;8.77;2.75;;;14.50;99.90;;;;;;4987733;28;20372;-71
2022/07/15 06:37:10;;;;;;;8.98;2.88;;;14.50;99.90;;;;;;4987715;28;20050;-71
2022/07/15 06:39:36;;;;;;;4.85;2.28;;;14.70;99.90;;;;;;4969655;28;20539;-71
2022/07/15 06:42:02;;;;;;;5.13;2.05;;;14.80;99.90;;;;;;4989138;28;20034;-71
2022/07/15 06:44:28;;;;;;;4.45;1.73;;;15.00;99.90;;;;;;4986807;28;20050;-71
2022/07/15 06:46:55;;;;;;;7.40;1.92;;;15.10;99.90;;;;;;4968939;28;20720;-71
2022/07/15 06:49:21;;;;;;;14.70;2.05;;;15.30;99.90;;;;;;4970210;28;20058;-71
2022/07/15 06:51:47;;;;;;;3.17;1.80;;;15.50;99.90;;;;;;4987113;28;20092;-71
2022/07/15 06:54:12;;;;;;;6.63;2.05;;;15.60;99.90;;;;;;4968877;28;20085;-71
2022/07/15 06:56:39;;;;;;;9.48;2.65;;;15.80;99.90;;;;;;4987228;28;20088;-71
2022/07/15 06:59:05;;;;;;;5.50;1.90;;;15.90;99.90;;;;;;4986025;28;20061;-72
2022/07/15 07:01:30;;;;;;;2.72;1.58;;;16.10;99.90;;;;;;4968457;28;20065;-71
2022/07/15 07:03:57;;;;;;;1.75;1.08;;;16.20;99.90;;;;;;4967993;28;20038;-73
2022/07/15 07:06:23;;;;;;;6.20;1.88;;;16.40;99.90;;;;;;4985635;28;20125;-73
2022/07/15 07:08:49;;;;;;;9.93;1.48;;;16.50;99.90;;;;;;4972045;28;20468;-72
2022/07/15 07:11:15;;;;;;;6.07;1.67;;;16.70;99.90;;;;;;4987772;28;20514;-71
2022/07/15 07:13:41;;;;;;;4.55;1.52;;;16.80;99.90;;;;;;4989274;28;20049;-73
2022/07/15 07:16:07;;;;;;;3.88;1.45;;;16.70;99.90;;;;;;4985513;28;20038;-73
2022/07/15 07:18:33;;;;;;;9.60;5.07;;;16.80;99.90;;;;;;4989556;28;20041;-73
2022/07/15 07:20:59;;;;;;;3.67;1.92;;;16.90;99.90;;;;;;4972200;28;20109;-73
2022/07/15 07:23:26;;;;;;;7.43;1.95;;;16.90;99.90;;;;;;4973634;28;20480;-73
2022/07/15 07:25:53;;;;;;;4.93;1.90;;;16.90;99.90;;;;;;4990895;28;20054;-73
2022/07/15 07:28:19;;;;;;;5.60;1.63;;;17.10;99.90;;;;;;4970954;28;20321;-73
2022/07/15 07:30:46;;;;;;;5.78;2.08;;;17.00;99.90;;;;;;4989754;28;20101;-73
2022/07/15 07:33:12;;;;;;;7.75;2.10;;;17.20;99.90;;;;;;4973550;28;20050;-74
2022/07/15 07:35:38;;;;;;;9.88;2.33;;;17.30;99.90;;;;;;4985859;28;20042;-73
2022/07/15 07:38:04;;;;;;;10.38;1.95;;;17.40;99.90;;;;;;4973383;28;20511;-72
2022/07/15 07:40:30;;;;;;;7.60;1.58;;;17.40;99.90;;;;;;4991724;28;20072;-72
2022/07/15 07:42:56;;;;;;;17.40;2.22;;;17.50;99.90;;;;;;4988203;28;20423;-72
2022/07/15 07:45:23;;;;;;;7.70;2.03;;;17.70;99.90;;;;;;4985171;28;20038;-72
2022/07/15 07:47:49;;;;;;;5.40;1.85;;;17.70;99.90;;;;;;4971982;28;20084;-72
2022/07/15 07:50:15;;;;;;;4.32;1.92;;;17.70;99.90;;;;;;4972073;28;20057;-72
2022/07/15 07:52:41;;;;;;;5.00;1.80;;;17.60;99.90;;;;;;4981243;28;20411;-73
2022/07/15 07:55:08;;;;;;;7.05;1.58;;;17.60;99.90;;;;;;4988889;28;20891;-72
2022/07/15 07:57:35;;;;;;;5.13;1.27;;;17.60;99.90;;;;;;4988788;28;20121;-73
2022/07/15 08:00:02;;;;;;;3.22;1.42;;;17.70;99.90;;;;;;4969329;28;20055;-73
2022/07/15 08:02:28;;;;;;;3.88;1.45;;;17.90;99.90;;;;;;4984519;28;20458;-72
2022/07/15 08:04:53;;;;;;;5.82;1.23;;;18.40;99.90;;;;;;4989633;28;20050;-72
2022/07/15 08:07:19;;;;;;;6.65;2.30;;;18.80;99.90;;;;;;4989664;28;20112;-73
2022/07/15 08:09:45;;;;;;;2.50;1.20;;;19.20;99.90;;;;;;4970959;28;20046;-73
2022/07/15 08:12:11;;;;;;;5.45;1.30;;;19.40;99.90;;;;;;4989446;28;20412;-70
2022/07/15 08:14:37;;;;;;;2.28;1.42;;;19.40;99.90;;;;;;4969871;28;20547;-70
2022/07/15 08:17:02;;;;;;;1.52;1.00;;;19.10;99.90;;;;;;4989230;28;20076;-69
2022/07/15 08:19:28;;;;;;;3.90;1.58;;;18.90;99.90;;;;;;4979841;28;20039;-71
2022/07/15 08:21:54;;;;;;;9.60;2.10;;;19.20;99.90;;;;;;4984394;28;20704;-70
2022/07/15 08:24:20;;;;;;;9.80;1.90;;;19.30;99.90;;;;;;4990253;28;20296;-70
2022/07/15 08:26:45;;;;;;;6.03;1.25;;;19.50;99.90;;;;;;4969847;28;20046;-71
2022/07/15 08:29:11;;;;;;;3.20;1.00;;;19.80;99.90;;;;;;4984025;28;20057;-73
2022/07/15 08:31:37;;;;;;;1.77;0.80;;;19.70;99.90;;;;;;4989372;28;20487;-72
2022/07/15 08:34:04;;;;;;;2.40;1.58;;;19.90;99.90;;;;;;4988774;28;20046;-72
2022/07/15 08:36:30;;;;;;;5.88;1.20;;;19.90;99.90;;;;;;4990398;28;20046;-72
2022/07/15 08:38:56;;;;;;;2.65;1.08;;;19.70;99.90;;;;;;4990100;28;20447;-72
2022/07/15 08:41:21;;;;;;;2.63;1.20;;;19.60;99.90;;;;;;4989520;28;20054;-72
2022/07/15 08:43:47;;;;;;;2.10;1.10;;;19.40;99.90;;;;;;4971298;28;20042;-72
2022/07/15 08:46:14;;;;;;;4.70;1.85;;;19.30;99.90;;;;;;4989177;28;20046;-71
2022/07/15 08:48:43;;;;;;;7.85;1.80;;;19.20;99.90;;;;;;4971346;28;20062;-71
2022/07/15 08:51:09;;;;;;;9.55;1.33;;;19.00;99.90;;;;;;4989147;28;20174;-71
2022/07/15 08:53:35;;;;;;;4.88;1.23;;;19.00;99.90;;;;;;4971520;28;20497;-71
2022/07/15 08:56:02;;;;;;;4.78;1.30;;;18.90;99.90;;;;;;4989477;28;20046;-73
2022/07/15 08:58:28;;;;;;;4.43;0.77;;;19.00;99.90;;;;;;4987096;28;20185;-72
2022/07/15 09:00:54;;;;;;;3.55;1.15;;;18.90;99.90;;;;;;4987789;28;20050;-73
2022/07/15 09:03:20;;;;;;;4.53;0.98;;;18.80;99.90;;;;;;4986215;28;20533;-73
2022/07/15 09:05:45;;;;;;;3.70;1.15;;;19.20;99.90;;;;;;4992277;28;20136;-71
2022/07/15 09:08:16;;;;;;;2.38;1.17;;;19.60;99.90;;;;;;4992097;28;20061;-71
2022/07/15 09:10:52;;;;;;;3.40;1.48;;;19.70;99.90;;;;;;4986315;28;20059;-72
2022/07/15 09:13:32;;;;;;;6.70;1.33;;;19.70;99.90;;;;;;4971776;28;20601;-72
2022/07/15 09:16:01;;;;;;;6.38;1.52;;;19.60;99.90;;;;;;4966701;28;20103;-73
2022/07/15 09:18:30;;;;;;;2.42;1.50;;;19.30;99.90;;;;;;4988673;28;20045;-73
2022/07/15 09:20:57;;;;;;;6.43;1.17;;;19.10;99.90;;;;;;4995785;28;20133;-72
2022/07/15 09:23:31;;;;;;;1.65;0.90;;;18.90;99.90;;;;;;4989801;28;20070;-73
2022/07/15 09:26:24;;;;;;;2.65;1.17;;;18.80;99.90;;;;;;4988328;28;20053;-73
2022/07/15 09:28:50;;;;;;;2.83;1.42;;;18.70;99.90;;;;;;4966322;28;20089;-72
2022/07/15 09:34:20;;;;;;;5.07;1.88;;;18.50;99.90;;;;;;4959208;28;20065;-72
2022/07/15 09:36:54;;;;;;;2.22;1.40;;;18.50;99.90;;;;;;4985065;28;20042;-72
2022/07/15 09:39:21;;;;;;;1.88;1.15;;;18.50;99.90;;;;;;4976140;28;20375;-72
2022/07/15 09:41:48;;;;;;;4.05;1.67;;;18.60;99.90;;;;;;4968368;28;20558;-73
2022/07/15 09:44:16;;;;;;;2.78;1.45;;;18.60;99.90;;;;;;4984796;28;20054;-72
2022/07/15 09:46:57;;;;;;;6.47;1.23;;;18.60;99.90;;;;;;4982745;28;20882;-72
2022/07/15 09:49:22;;;;;;;3.20;1.30;;;18.80;99.90;;;;;;4985002;28;20639;-72
2022/07/15 09:51:58;;;;;;;2.03;1.23;;;19.00;99.90;;;;;;4983862;28;20052;-73
2022/07/15 09:54:30;;;;;;;5.30;1.55;;;19.10;99.90;;;;;;4968268;28;20051;-74
2022/07/15 09:56:57;;;;;;;4.00;1.13;;;19.20;99.90;;;;;;4968747;28;20521;-73
2022/07/15 09:59:24;;;;;;;6.30;1.90;;;19.10;99.90;;;;;;4987663;28;20121;-72
2022/07/15 10:01:50;;;;;;;3.60;1.40;;;19.10;99.90;;;;;;4991190;28;20042;-72
2022/07/15 10:04:19;;;;;;;6.82;1.52;;;19.10;99.90;;;;;;4964488;28;20706;-72
2022/07/15 10:06:48;;;;;;;2.28;1.38;;;19.00;99.90;;;;;;4978233;28;20560;-72
2022/07/15 10:09:14;;;;;;;7.57;1.50;;;18.80;99.90;;;;;;4983987;28;20085;-72
2022/07/15 10:11:48;;;;;;;5.03;1.38;;;18.70;99.90;;;;;;4969020;28;20417;-72
2022/07/15 10:14:26;;;;;;;2.72;1.10;;;18.60;99.90;;;;;;4987592;28;20070;-72
2022/07/15 10:16:51;;;;;;;;;;;18.50;99.90;;;;;;4965291;28;20104;-72
2022/07/15 10:19:45;;;;;;;5.43;1.27;;;18.50;99.90;;;;;;4965460;28;19934;-73
2022/07/15 10:22:40;;;;;;;4.70;1.33;;;18.50;99.90;;;;;;4966639;28;20056;-72
2022/07/15 10:25:23;;;;;;;3.28;1.38;;;18.60;99.90;;;;;;4970377;28;20046;-72
2022/07/15 10:27:57;;;;;;;4.05;1.58;;;18.60;99.90;;;;;;4970539;28;20050;-72
2022/07/15 10:30:24;;;;;;;5.88;1.05;;;18.70;99.90;;;;;;4974995;28;20101;-72
2022/07/15 10:33:07;;;;;;;14.05;2.38;;;18.80;99.90;;;;;;4972122;28;20055;-72
2022/07/15 10:35:45;;;;;;;2.55;1.23;;;19.00;99.90;;;;;;4968536;28;20049;-72
2022/07/15 10:38:29;;;;;;;;;;;19.20;99.90;;;;;;4985029;28;20049;-73
2022/07/15 10:41:06;;;;;;;3.35;1.60;;;19.30;99.90;;;;;;4983106;28;19950;-72
2022/07/15 10:43:41;;;;;;;7.68;1.50;;;19.70;99.90;;;;;;4990427;28;20485;-73
2022/07/15 10:46:20;;;;;;;14.82;2.33;;;19.80;99.90;;;;;;4973368;28;20050;-72
2022/07/15 10:48:51;;;;;;;6.35;2.00;;;19.80;99.90;;;;;;4972548;28;20053;-72
2022/07/15 10:51:35;;;;;;;3.63;1.58;;;20.20;99.90;;;;;;4990916;28;20494;-72
2022/07/15 10:54:31;;;;;;;3.70;1.40;;;20.60;99.90;;;;;;4974063;28;20697;-72
2022/07/15 10:56:56;;;;;;;4.03;1.33;;;21.00;99.90;;;;;;4970750;28;20051;-72
2022/07/15 10:59:24;;;;;;;3.92;0.82;;;21.30;99.90;;;;;;4991073;28;20065;-73
2022/07/15 11:02:10;;;;;;;;;;;21.50;96.90;;;;;;4968644;28;20079;-73
2022/07/15 11:04:37;;;;;;;3.67;1.58;;;21.50;84.10;;;;;;4963524;28;19921;-73
2022/07/15 11:07:02;;;;;;;1.70;1.20;;;21.90;95.80;;;;;;4989109;28;20057;-73
2022/07/15 11:09:48;;;;;;;4.75;0.95;;;21.80;93.50;;;;;;4990943;28;20058;-72
2022/07/15 11:12:32;;;;;;;4.63;1.10;;;22.00;86.90;;;;;;4973413;28;20055;-73
2022/07/15 11:15:00;;;;;;;3.70;1.60;;;22.10;93.10;;;;;;4971950;28;20049;-72
2022/07/15 11:17:29;;;;;;;;;;;22.30;90.00;;;;;;4975700;28;20172;-72
2022/07/15 11:20:11;;;;;;;2.22;1.02;;;22.40;85.00;;;;;;4972970;28;19925;-73
2022/07/15 11:22:48;;;;;;;1.38;1.08;;;22.60;78.70;;;;;;4989793;28;20046;-72
2022/07/15 11:25:33;;;;;;;2.08;1.50;;;22.50;71.90;;;;;;4977896;28;20089;-73
2022/07/15 11:28:08;;;;;;;1.92;1.48;;;22.60;70.90;;;;;;4973968;28;20054;-73
2022/07/15 11:30:53;;;;;;;2.53;1.38;;;22.80;78.30;;;;;;4972949;28;20063;-73
2022/07/15 11:33:26;;;;;;;10.95;3.15;;;23.00;76.70;;;;;;4989637;28;20377;-73
2022/07/15 11:35:58;;;;;;;9.45;3.42;;;23.30;78.40;;;;;;4990310;28;20411;-73
2022/07/15 11:38:30;;;;;;;4.35;1.10;;;23.20;75.90;;;;;;4989348;28;20061;-73
2022/07/15 11:46:47;;;;;;;0.98;0.98;;;22.70;80.10;;;;;;4961478;28;20104;-73
2022/07/15 11:49:35;;;;;;;4.93;1.08;;;22.60;75.20;;;;;;4968085;28;20086;-72
2022/07/15 11:52:03;;;;;;;6.00;0.98;;;22.40;72.80;;;;;;4987566;28;20045;-72
2022/07/15 11:54:28;;;;;;;7.45;1.25;;;22.20;77.10;;;;;;4990741;28;20077;-72
2022/07/15 11:56:59;;;;;;;4.13;1.40;;;22.00;77.40;;;;;;4986291;28;20126;-72
2022/07/15 11:59:26;;;;;;;2.20;0.90;;;21.70;75.80;;;;;;4989661;28;20054;-72
2022/07/15 12:02:07;;;;;;;2.50;1.55;;;21.60;78.40;;;;;;4992052;28;20721;-72
2022/07/15 12:04:34;;;;;;;1.55;0.90;;;21.60;78.40;;;;;;4989254;28;20117;-72
2022/07/15 12:06:59;;;;;;;0.95;0.80;;;21.70;82.20;;;;;;4959797;28;20467;-72
2022/07/15 12:09:38;;;;;;;4.32;1.00;;;21.70;83.40;;;;;;4988436;28;20113;-73
2022/07/15 12:12:04;;;;;;;3.35;1.05;;;21.70;81.80;;;;;;4988087;28;20050;-73
2022/07/15 12:14:30;;;;;;;1.40;1.30;;;21.80;80.80;;;;;;4986815;28;20046;-72
2022/07/15 12:16:56;;;;;;;9.88;1.40;;;21.80;78.30;;;;;;4989444;28;20090;-71
2022/07/15 12:19:26;;;;;;;2.63;1.00;;;21.90;75.30;;;;;;4988774;28;20058;-72
2022/07/15 12:21:54;;;;;;;2.40;1.17;;;21.90;76.50;;;;;;4989509;28;20524;-72
2022/07/15 12:24:25;;;;;;;1.55;1.00;;;22.00;76.30;;;;;;4989312;28;20132;-72
2022/07/15 12:26:52;;;;;;;3.25;1.25;;;22.00;78.70;;;;;;4988915;28;20058;-72
2022/07/15 12:29:18;;;;;;;2.65;1.27;;;22.10;81.10;;;;;;4996667;28;20050;-72
2022/07/15 12:32:17;;;;;;;1.90;0.85;;;22.30;83.40;;;;;;4966374;28;20055;-72
2022/07/15 12:35:00;;;;;;;4.35;1.30;;;22.40;82.10;;;;;;4976416;28;20108;-72
2022/07/15 12:37:27;;;;;;;3.00;1.27;;;22.20;78.80;;;;;;4989018;28;20467;-72
2022/07/15 12:40:04;;;;;;;6.38;1.67;;;22.10;76.30;;;;;;4968734;28;20082;-72
2022/07/15 12:42:40;;;;;;;5.25;1.13;;;22.10;72.80;;;;;;4980035;28;20050;-72
2022/07/15 12:45:27;;;;;;;6.53;1.17;;;22.10;72.70;;;;;;4981141;28;20046;-72
2022/07/15 12:48:07;;;;;;;5.10;0.80;;;22.30;68.60;;;;;;4982221;28;20503;-71
2022/07/15 12:50:35;;;;;;;2.95;1.08;;;22.20;70.90;;;;;;4982749;28;20069;-72
2022/07/15 12:53:01;;;;;;;2.40;1.20;;;22.20;69.90;;;;;;4988939;28;20061;-72
2022/07/15 12:55:33;;;;;;;1.15;1.00;;;22.30;72.00;;;;;;4988569;28;20089;-71
2022/07/15 12:58:11;;;;;;;2.15;0.80;;;22.30;69.00;;;;;;4980227;28;20039;-71
2022/07/15 13:00:38;;;;;;;18.08;2.38;;;22.20;69.50;;;;;;4978949;28;20168;-72
2022/07/15 13:03:20;;;;;;;4.72;1.33;;;22.20;71.20;;;;;;4987955;28;20543;-71
2022/07/15 13:05:47;;;;;;;3.83;0.98;;;22.00;72.70;;;;;;4979189;28;20046;-72